sensor_id;sensor_type;location;lat;lon;timestamp;P1;durP1;ratioP1;P2;durP2;ratioP2
3066;SDS011;1544;48.834;9.194;2023-11-19T00:02:30;1.40;;;1.30;;
3066;SDS011;1544;48.834;9.194;2023-11-19T00:05:06;2.13;;;1.47;;
3066;SDS011;1544;48.834;9.194;2023-11-19T00:07:49;2.37;;;1.40;;
3066;SDS011;1544;48.834;9.194;2023-11-19T00:10:25;1.50;;;1.40;;
3066;SDS011;1544;48.834;9.194;2023-11-19T00:13:01;1.20;;;1.10;;
3066;SDS011;1544;48.834;9.194;2023-11-19T00:15:40;1.40;;;1.30;;
3066;SDS011;1544;48.834;9.194;2023-11-19T00:18:16;2.53;;;1.70;;
3066;SDS011;1544;48.834;9.194;2023-11-19T00:20:52;1.50;;;1.20;;
3066;SDS011;1544;48.834;9.194;2023-11-19T00:23:28;1.27;;;1.17;;
3066;SDS011;1544;48.834;9.194;2023-11-19T00:26:04;1.73;;;1.40;;
3066;SDS011;1544;48.834;9.194;2023-11-19T00:28:41;1.23;;;1.13;;
3066;SDS011;1544;48.834;9.194;2023-11-19T00:31:18;1.30;;;1.20;;
3066;SDS011;1544;48.834;9.194;2023-11-19T00:33:54;1.27;;;1.00;;
3066;SDS011;1544;48.834;9.194;2023-11-19T00:36:30;0.90;;;0.90;;
3066;SDS011;1544;48.834;9.194;2023-11-19T00:39:07;1.13;;;1.00;;
3066;SDS011;1544;48.834;9.194;2023-11-19T00:41:43;0.80;;;0.80;;
3066;SDS011;1544;48.834;9.194;2023-11-19T00:44:19;1.90;;;0.80;;
3066;SDS011;1544;48.834;9.194;2023-11-19T00:46:55;0.77;;;0.77;;
3066;SDS011;1544;48.834;9.194;2023-11-19T00:49:31;0.80;;;0.80;;
3066;SDS011;1544;48.834;9.194;2023-11-19T00:52:08;0.93;;;0.93;;
3066;SDS011;1544;48.834;9.194;2023-11-19T00:54:44;0.73;;;0.73;;
3066;SDS011;1544;48.834;9.194;2023-11-19T00:57:20;0.80;;;0.80;;
3066;SDS011;1544;48.834;9.194;2023-11-19T00:59:56;0.70;;;0.70;;
3066;SDS011;1544;48.834;9.194;2023-11-19T01:02:31;1.00;;;0.90;;
3066;SDS011;1544;48.834;9.194;2023-11-19T01:05:10;0.80;;;0.80;;
3066;SDS011;1544;48.834;9.194;2023-11-19T01:07:49;1.47;;;0.70;;
3066;SDS011;1544;48.834;9.194;2023-11-19T01:10:26;0.60;;;0.60;;
3066;SDS011;1544;48.834;9.194;2023-11-19T01:13:02;0.73;;;0.70;;
3066;SDS011;1544;48.834;9.194;2023-11-19T01:15:41;0.87;;;0.60;;
3066;SDS011;1544;48.834;9.194;2023-11-19T01:18:17;0.70;;;0.60;;
3066;SDS011;1544;48.834;9.194;2023-11-19T01:20:54;0.80;;;0.80;;
3066;SDS011;1544;48.834;9.194;2023-11-19T01:23:30;0.50;;;0.50;;
3066;SDS011;1544;48.834;9.194;2023-11-19T01:26:06;0.70;;;0.70;;
3066;SDS011;1544;48.834;9.194;2023-11-19T01:28:46;0.70;;;0.70;;
3066;SDS011;1544;48.834;9.194;2023-11-19T01:31:26;1.13;;;0.70;;
3066;SDS011;1544;48.834;9.194;2023-11-19T01:34:02;0.83;;;0.83;;
3066;SDS011;1544;48.834;9.194;2023-11-19T01:36:39;0.80;;;0.80;;
3066;SDS011;1544;48.834;9.194;2023-11-19T01:39:15;0.80;;;0.70;;
3066;SDS011;1544;48.834;9.194;2023-11-19T01:41:55;1.20;;;1.10;;
3066;SDS011;1544;48.834;9.194;2023-11-19T01:44:31;1.00;;;1.00;;
3066;SDS011;1544;48.834;9.194;2023-11-19T01:47:08;1.20;;;1.10;;
3066;SDS011;1544;48.834;9.194;2023-11-19T01:49:44;0.90;;;0.90;;
3066;SDS011;1544;48.834;9.194;2023-11-19T01:52:20;0.70;;;0.70;;
3066;SDS011;1544;48.834;9.194;2023-11-19T01:54:56;0.97;;;0.70;;
3066;SDS011;1544;48.834;9.194;2023-11-19T01:57:33;0.80;;;0.80;;
3066;SDS011;1544;48.834;9.194;2023-11-19T02:00:09;1.50;;;1.40;;
3066;SDS011;1544;48.834;9.194;2023-11-19T02:02:48;1.43;;;1.30;;
3066;SDS011;1544;48.834;9.194;2023-11-19T02:05:24;1.10;;;1.00;;
3066;SDS011;1544;48.834;9.194;2023-11-19T02:08:01;1.20;;;1.10;;
3066;SDS011;1544;48.834;9.194;2023-11-19T02:10:38;2.13;;;1.93;;
3066;SDS011;1544;48.834;9.194;2023-11-19T02:13:14;1.03;;;0.93;;
3066;SDS011;1544;48.834;9.194;2023-11-19T02:15:51;0.70;;;0.70;;
3066;SDS011;1544;48.834;9.194;2023-11-19T02:18:27;1.43;;;0.80;;
3066;SDS011;1544;48.834;9.194;2023-11-19T02:21:04;1.10;;;0.60;;
3066;SDS011;1544;48.834;9.194;2023-11-19T02:23:40;1.30;;;1.20;;
3066;SDS011;1544;48.834;9.194;2023-11-19T02:26:18;1.17;;;1.10;;
3066;SDS011;1544;48.834;9.194;2023-11-19T02:29:13;1.07;;;0.97;;
3066;SDS011;1544;48.834;9.194;2023-11-19T02:31:49;1.83;;;1.20;;
3066;SDS011;1544;48.834;9.194;2023-11-19T02:34:26;1.40;;;1.30;;
3066;SDS011;1544;48.834;9.194;2023-11-19T02:37:02;1.00;;;1.00;;
3066;SDS011;1544;48.834;9.194;2023-11-19T02:39:39;1.23;;;1.13;;
3066;SDS011;1544;48.834;9.194;2023-11-19T02:42:15;1.20;;;1.10;;
3066;SDS011;1544;48.834;9.194;2023-11-19T02:44:51;1.20;;;1.10;;
3066;SDS011;1544;48.834;9.194;2023-11-19T02:47:27;1.30;;;1.20;;
3066;SDS011;1544;48.834;9.194;2023-11-19T02:50:05;1.30;;;1.20;;
3066;SDS011;1544;48.834;9.194;2023-11-19T02:52:49;2.57;;;1.33;;
3066;SDS011;1544;48.834;9.194;2023-11-19T02:55:26;2.13;;;1.70;;
3066;SDS011;1544;48.834;9.194;2023-11-19T02:58:05;1.10;;;1.00;;
3066;SDS011;1544;48.834;9.194;2023-11-19T03:00:47;1.00;;;1.00;;
3066;SDS011;1544;48.834;9.194;2023-11-19T03:03:29;1.10;;;1.00;;
3066;SDS011;1544;48.834;9.194;2023-11-19T03:06:14;1.37;;;1.00;;
3066;SDS011;1544;48.834;9.194;2023-11-19T03:08:50;1.50;;;1.00;;
3066;SDS011;1544;48.834;9.194;2023-11-19T03:11:26;1.30;;;1.20;;
3066;SDS011;1544;48.834;9.194;2023-11-19T03:14:02;1.20;;;1.10;;
3066;SDS011;1544;48.834;9.194;2023-11-19T03:16:38;1.10;;;1.10;;
3066;SDS011;1544;48.834;9.194;2023-11-19T03:19:14;1.97;;;1.87;;
3066;SDS011;1544;48.834;9.194;2023-11-19T03:22:01;1.80;;;1.70;;
3066;SDS011;1544;48.834;9.194;2023-11-19T03:24:37;2.40;;;2.20;;
3066;SDS011;1544;48.834;9.194;2023-11-19T03:27:13;2.43;;;2.23;;
3066;SDS011;1544;48.834;9.194;2023-11-19T03:29:51;2.37;;;2.17;;
3066;SDS011;1544;48.834;9.194;2023-11-19T03:32:27;1.90;;;1.80;;
3066;SDS011;1544;48.834;9.194;2023-11-19T03:35:04;1.73;;;1.63;;
3066;SDS011;1544;48.834;9.194;2023-11-19T03:37:44;2.37;;;2.17;;
3066;SDS011;1544;48.834;9.194;2023-11-19T03:40:21;1.70;;;1.60;;
3066;SDS011;1544;48.834;9.194;2023-11-19T03:42:57;1.70;;;1.23;;
3066;SDS011;1544;48.834;9.194;2023-11-19T03:45:34;1.43;;;1.33;;
3066;SDS011;1544;48.834;9.194;2023-11-19T03:48:11;1.20;;;1.10;;
3066;SDS011;1544;48.834;9.194;2023-11-19T03:50:47;1.03;;;1.03;;
3066;SDS011;1544;48.834;9.194;2023-11-19T03:53:24;1.50;;;1.10;;
3066;SDS011;1544;48.834;9.194;2023-11-19T03:56:00;0.97;;;0.97;;
3066;SDS011;1544;48.834;9.194;2023-11-19T03:58:36;0.90;;;0.90;;
3066;SDS011;1544;48.834;9.194;2023-11-19T04:01:13;0.90;;;0.90;;
3066;SDS011;1544;48.834;9.194;2023-11-19T04:03:49;1.27;;;0.80;;
3066;SDS011;1544;48.834;9.194;2023-11-19T04:06:26;0.70;;;0.70;;
3066;SDS011;1544;48.834;9.194;2023-11-19T04:09:02;0.97;;;0.60;;
3066;SDS011;1544;48.834;9.194;2023-11-19T04:11:38;0.70;;;0.70;;
3066;SDS011;1544;48.834;9.194;2023-11-19T04:14:15;1.67;;;0.80;;
3066;SDS011;1544;48.834;9.194;2023-11-19T04:16:53;0.77;;;0.77;;
3066;SDS011;1544;48.834;9.194;2023-11-19T04:19:29;1.70;;;0.80;;
3066;SDS011;1544;48.834;9.194;2023-11-19T04:22:08;1.20;;;1.10;;
3066;SDS011;1544;48.834;9.194;2023-11-19T04:24:44;1.40;;;1.30;;
3066;SDS011;1544;48.834;9.194;2023-11-19T04:27:21;1.73;;;1.20;;
3066;SDS011;1544;48.834;9.194;2023-11-19T04:29:57;1.20;;;1.10;;
3066;SDS011;1544;48.834;9.194;2023-11-19T04:32:33;1.40;;;1.00;;
3066;SDS011;1544;48.834;9.194;2023-11-19T04:35:09;0.73;;;0.73;;
3066;SDS011;1544;48.834;9.194;2023-11-19T04:37:45;0.60;;;0.60;;
3066;SDS011;1544;48.834;9.194;2023-11-19T04:40:22;0.30;;;0.30;;
3066;SDS011;1544;48.834;9.194;2023-11-19T04:42:59;0.30;;;0.30;;
3066;SDS011;1544;48.834;9.194;2023-11-19T04:45:35;0.40;;;0.40;;
3066;SDS011;1544;48.834;9.194;2023-11-19T04:48:11;0.30;;;0.30;;
3066;SDS011;1544;48.834;9.194;2023-11-19T04:50:47;0.30;;;0.30;;
3066;SDS011;1544;48.834;9.194;2023-11-19T04:53:23;0.30;;;0.30;;
3066;SDS011;1544;48.834;9.194;2023-11-19T04:55:59;0.33;;;0.30;;
3066;SDS011;1544;48.834;9.194;2023-11-19T04:58:35;0.47;;;0.40;;
3066;SDS011;1544;48.834;9.194;2023-11-19T05:01:15;0.30;;;0.30;;
3066;SDS011;1544;48.834;9.194;2023-11-19T05:03:52;3.67;;;0.40;;
3066;SDS011;1544;48.834;9.194;2023-11-19T05:06:28;0.40;;;0.30;;
3066;SDS011;1544;48.834;9.194;2023-11-19T05:09:05;0.40;;;0.30;;
3066;SDS011;1544;48.834;9.194;2023-11-19T05:11:44;0.40;;;0.30;;
3066;SDS011;1544;48.834;9.194;2023-11-19T05:14:23;0.57;;;0.30;;
3066;SDS011;1544;48.834;9.194;2023-11-19T05:17:00;0.47;;;0.40;;
3066;SDS011;1544;48.834;9.194;2023-11-19T05:19:36;0.40;;;0.30;;
3066;SDS011;1544;48.834;9.194;2023-11-19T05:22:12;0.30;;;0.30;;
3066;SDS011;1544;48.834;9.194;2023-11-19T05:24:48;0.67;;;0.30;;
3066;SDS011;1544;48.834;9.194;2023-11-19T05:27:25;0.40;;;0.30;;
3066;SDS011;1544;48.834;9.194;2023-11-19T05:30:03;0.40;;;0.40;;
3066;SDS011;1544;48.834;9.194;2023-11-19T05:32:42;0.30;;;0.30;;
3066;SDS011;1544;48.834;9.194;2023-11-19T05:35:18;0.30;;;0.30;;
3066;SDS011;1544;48.834;9.194;2023-11-19T05:37:54;0.30;;;0.30;;
3066;SDS011;1544;48.834;9.194;2023-11-19T05:40:31;0.30;;;0.30;;
3066;SDS011;1544;48.834;9.194;2023-11-19T05:43:08;0.30;;;0.30;;
3066;SDS011;1544;48.834;9.194;2023-11-19T05:45:44;0.77;;;0.30;;
3066;SDS011;1544;48.834;9.194;2023-11-19T05:48:20;0.30;;;0.30;;
3066;SDS011;1544;48.834;9.194;2023-11-19T05:50:56;0.83;;;0.40;;
3066;SDS011;1544;48.834;9.194;2023-11-19T05:53:32;0.40;;;0.40;;
3066;SDS011;1544;48.834;9.194;2023-11-19T05:56:08;0.30;;;0.30;;
3066;SDS011;1544;48.834;9.194;2023-11-19T05:58:45;0.40;;;0.30;;
3066;SDS011;1544;48.834;9.194;2023-11-19T06:01:23;1.33;;;0.40;;
3066;SDS011;1544;48.834;9.194;2023-11-19T06:03:59;0.30;;;0.30;;
3066;SDS011;1544;48.834;9.194;2023-11-19T06:06:36;0.40;;;0.40;;
3066;SDS011;1544;48.834;9.194;2023-11-19T06:09:12;0.30;;;0.30;;
3066;SDS011;1544;48.834;9.194;2023-11-19T06:11:51;0.20;;;0.20;;
3066;SDS011;1544;48.834;9.194;2023-11-19T06:14:28;0.40;;;0.30;;
3066;SDS011;1544;48.834;9.194;2023-11-19T06:17:03;0.40;;;0.30;;
3066;SDS011;1544;48.834;9.194;2023-11-19T06:19:40;0.30;;;0.30;;
3066;SDS011;1544;48.834;9.194;2023-11-19T06:22:16;0.40;;;0.30;;
3066;SDS011;1544;48.834;9.194;2023-11-19T06:24:52;0.30;;;0.30;;
3066;SDS011;1544;48.834;9.194;2023-11-19T06:27:28;0.90;;;0.40;;
3066;SDS011;1544;48.834;9.194;2023-11-19T06:30:04;0.30;;;0.30;;
3066;SDS011;1544;48.834;9.194;2023-11-19T06:32:41;0.30;;;0.30;;
3066;SDS011;1544;48.834;9.194;2023-11-19T06:35:17;0.40;;;0.40;;
3066;SDS011;1544;48.834;9.194;2023-11-19T06:37:53;0.30;;;0.30;;
3066;SDS011;1544;48.834;9.194;2023-11-19T06:40:30;0.40;;;0.30;;
3066;SDS011;1544;48.834;9.194;2023-11-19T06:43:07;0.30;;;0.27;;
3066;SDS011;1544;48.834;9.194;2023-11-19T06:45:44;0.30;;;0.30;;
3066;SDS011;1544;48.834;9.194;2023-11-19T06:48:20;0.30;;;0.30;;
3066;SDS011;1544;48.834;9.194;2023-11-19T06:50:56;0.50;;;0.30;;
3066;SDS011;1544;48.834;9.194;2023-11-19T06:53:32;0.30;;;0.30;;
3066;SDS011;1544;48.834;9.194;2023-11-19T06:56:19;0.40;;;0.30;;
3066;SDS011;1544;48.834;9.194;2023-11-19T06:58:59;0.30;;;0.30;;
3066;SDS011;1544;48.834;9.194;2023-11-19T07:01:35;0.50;;;0.40;;
3066;SDS011;1544;48.834;9.194;2023-11-19T07:04:12;0.30;;;0.30;;
3066;SDS011;1544;48.834;9.194;2023-11-19T07:06:48;0.90;;;0.40;;
3066;SDS011;1544;48.834;9.194;2023-11-19T07:09:24;0.50;;;0.40;;
3066;SDS011;1544;48.834;9.194;2023-11-19T07:12:00;0.80;;;0.30;;
3066;SDS011;1544;48.834;9.194;2023-11-19T07:14:37;0.30;;;0.30;;
3066;SDS011;1544;48.834;9.194;2023-11-19T07:17:13;0.30;;;0.30;;
3066;SDS011;1544;48.834;9.194;2023-11-19T07:19:52;0.30;;;0.30;;
3066;SDS011;1544;48.834;9.194;2023-11-19T07:22:28;1.03;;;0.30;;
3066;SDS011;1544;48.834;9.194;2023-11-19T07:25:06;0.53;;;0.37;;
3066;SDS011;1544;48.834;9.194;2023-11-19T07:27:43;0.30;;;0.30;;
3066;SDS011;1544;48.834;9.194;2023-11-19T07:30:20;0.40;;;0.30;;
3066;SDS011;1544;48.834;9.194;2023-11-19T07:32:56;0.70;;;0.70;;
3066;SDS011;1544;48.834;9.194;2023-11-19T07:35:32;0.30;;;0.30;;
3066;SDS011;1544;48.834;9.194;2023-11-19T07:38:08;0.40;;;0.30;;
3066;SDS011;1544;48.834;9.194;2023-11-19T07:40:44;0.37;;;0.37;;
3066;SDS011;1544;48.834;9.194;2023-11-19T07:43:31;0.40;;;0.33;;
3066;SDS011;1544;48.834;9.194;2023-11-19T07:46:12;1.17;;;0.30;;
3066;SDS011;1544;48.834;9.194;2023-11-19T07:48:49;0.77;;;0.40;;
3066;SDS011;1544;48.834;9.194;2023-11-19T07:51:25;0.30;;;0.30;;
3066;SDS011;1544;48.834;9.194;2023-11-19T07:54:01;0.43;;;0.30;;
3066;SDS011;1544;48.834;9.194;2023-11-19T07:56:37;1.27;;;0.33;;
3066;SDS011;1544;48.834;9.194;2023-11-19T07:59:13;0.60;;;0.50;;
3066;SDS011;1544;48.834;9.194;2023-11-19T08:01:49;0.40;;;0.40;;
3066;SDS011;1544;48.834;9.194;2023-11-19T08:04:25;1.03;;;0.43;;
3066;SDS011;1544;48.834;9.194;2023-11-19T08:07:01;0.40;;;0.40;;
3066;SDS011;1544;48.834;9.194;2023-11-19T08:09:37;0.90;;;0.57;;
3066;SDS011;1544;48.834;9.194;2023-11-19T08:12:13;0.30;;;0.30;;
3066;SDS011;1544;48.834;9.194;2023-11-19T08:14:51;0.77;;;0.33;;
3066;SDS011;1544;48.834;9.194;2023-11-19T08:17:27;0.40;;;0.40;;
3066;SDS011;1544;48.834;9.194;2023-11-19T08:20:03;0.40;;;0.40;;
3066;SDS011;1544;48.834;9.194;2023-11-19T08:22:40;0.43;;;0.40;;
3066;SDS011;1544;48.834;9.194;2023-11-19T08:25:16;1.90;;;0.30;;
3066;SDS011;1544;48.834;9.194;2023-11-19T08:27:52;0.40;;;0.30;;
3066;SDS011;1544;48.834;9.194;2023-11-19T08:30:29;0.50;;;0.40;;
3066;SDS011;1544;48.834;9.194;2023-11-19T08:33:05;0.40;;;0.30;;
3066;SDS011;1544;48.834;9.194;2023-11-19T08:35:42;0.33;;;0.30;;
3066;SDS011;1544;48.834;9.194;2023-11-19T08:38:18;0.33;;;0.33;;
3066;SDS011;1544;48.834;9.194;2023-11-19T08:40:57;0.50;;;0.40;;
3066;SDS011;1544;48.834;9.194;2023-11-19T08:43:36;0.30;;;0.30;;
3066;SDS011;1544;48.834;9.194;2023-11-19T08:46:13;0.43;;;0.40;;
3066;SDS011;1544;48.834;9.194;2023-11-19T08:48:49;0.60;;;0.50;;
3066;SDS011;1544;48.834;9.194;2023-11-19T08:51:25;0.57;;;0.40;;
3066;SDS011;1544;48.834;9.194;2023-11-19T08:54:01;0.30;;;0.30;;
3066;SDS011;1544;48.834;9.194;2023-11-19T08:56:41;0.40;;;0.40;;
3066;SDS011;1544;48.834;9.194;2023-11-19T08:59:17;0.50;;;0.40;;
3066;SDS011;1544;48.834;9.194;2023-11-19T09:01:54;1.13;;;0.50;;
3066;SDS011;1544;48.834;9.194;2023-11-19T09:04:30;0.43;;;0.43;;
3066;SDS011;1544;48.834;9.194;2023-11-19T09:07:07;0.30;;;0.30;;
3066;SDS011;1544;48.834;9.194;2023-11-19T09:09:44;0.30;;;0.30;;
3066;SDS011;1544;48.834;9.194;2023-11-19T09:12:21;0.50;;;0.50;;
3066;SDS011;1544;48.834;9.194;2023-11-19T09:14:57;0.40;;;0.40;;
3066;SDS011;1544;48.834;9.194;2023-11-19T09:17:35;0.40;;;0.40;;
3066;SDS011;1544;48.834;9.194;2023-11-19T09:20:12;0.60;;;0.40;;
3066;SDS011;1544;48.834;9.194;2023-11-19T09:22:51;0.50;;;0.50;;
3066;SDS011;1544;48.834;9.194;2023-11-19T09:25:27;1.73;;;0.50;;
3066;SDS011;1544;48.834;9.194;2023-11-19T09:28:19;0.43;;;0.30;;
3066;SDS011;1544;48.834;9.194;2023-11-19T09:30:56;0.93;;;0.50;;
3066;SDS011;1544;48.834;9.194;2023-11-19T09:33:35;0.60;;;0.60;;
3066;SDS011;1544;48.834;9.194;2023-11-19T09:36:14;0.60;;;0.50;;
3066;SDS011;1544;48.834;9.194;2023-11-19T09:38:52;0.67;;;0.67;;
3066;SDS011;1544;48.834;9.194;2023-11-19T09:41:32;0.40;;;0.40;;
3066;SDS011;1544;48.834;9.194;2023-11-19T09:44:10;1.27;;;0.50;;
3066;SDS011;1544;48.834;9.194;2023-11-19T09:46:47;0.43;;;0.43;;
3066;SDS011;1544;48.834;9.194;2023-11-19T09:49:24;0.50;;;0.50;;
3066;SDS011;1544;48.834;9.194;2023-11-19T09:52:04;0.57;;;0.57;;
3066;SDS011;1544;48.834;9.194;2023-11-19T09:54:41;0.70;;;0.60;;
3066;SDS011;1544;48.834;9.194;2023-11-19T09:57:17;0.73;;;0.73;;
3066;SDS011;1544;48.834;9.194;2023-11-19T09:59:53;0.80;;;0.80;;
3066;SDS011;1544;48.834;9.194;2023-11-19T10:02:31;1.17;;;0.60;;
3066;SDS011;1544;48.834;9.194;2023-11-19T10:05:09;0.60;;;0.60;;
3066;SDS011;1544;48.834;9.194;2023-11-19T10:07:45;0.80;;;0.60;;
3066;SDS011;1544;48.834;9.194;2023-11-19T10:10:21;0.90;;;0.50;;
3066;SDS011;1544;48.834;9.194;2023-11-19T10:12:58;0.40;;;0.40;;
3066;SDS011;1544;48.834;9.194;2023-11-19T10:15:36;1.23;;;0.40;;
3066;SDS011;1544;48.834;9.194;2023-11-19T10:18:14;0.40;;;0.40;;
3066;SDS011;1544;48.834;9.194;2023-11-19T10:20:50;0.77;;;0.47;;
3066;SDS011;1544;48.834;9.194;2023-11-19T10:23:26;0.80;;;0.40;;
3066;SDS011;1544;48.834;9.194;2023-11-19T10:26:02;1.70;;;0.60;;
3066;SDS011;1544;48.834;9.194;2023-11-19T10:28:42;0.77;;;0.77;;
3066;SDS011;1544;48.834;9.194;2023-11-19T10:31:21;0.70;;;0.50;;
3066;SDS011;1544;48.834;9.194;2023-11-19T10:34:00;0.60;;;0.60;;
3066;SDS011;1544;48.834;9.194;2023-11-19T10:36:39;1.23;;;0.70;;
3066;SDS011;1544;48.834;9.194;2023-11-19T10:39:16;1.87;;;0.80;;
3066;SDS011;1544;48.834;9.194;2023-11-19T10:41:53;2.00;;;0.70;;
3066;SDS011;1544;48.834;9.194;2023-11-19T10:44:33;0.70;;;0.60;;
3066;SDS011;1544;48.834;9.194;2023-11-19T10:47:11;0.80;;;0.70;;
3066;SDS011;1544;48.834;9.194;2023-11-19T10:49:49;1.03;;;0.60;;
3066;SDS011;1544;48.834;9.194;2023-11-19T10:52:25;0.77;;;0.50;;
3066;SDS011;1544;48.834;9.194;2023-11-19T10:55:03;0.77;;;0.60;;
3066;SDS011;1544;48.834;9.194;2023-11-19T10:57:43;0.80;;;0.50;;
3066;SDS011;1544;48.834;9.194;2023-11-19T11:00:24;1.07;;;0.60;;
3066;SDS011;1544;48.834;9.194;2023-11-19T11:03:02;1.03;;;0.50;;
3066;SDS011;1544;48.834;9.194;2023-11-19T11:05:48;0.50;;;0.50;;
3066;SDS011;1544;48.834;9.194;2023-11-19T11:08:25;0.83;;;0.53;;
3066;SDS011;1544;48.834;9.194;2023-11-19T11:11:02;0.63;;;0.40;;
3066;SDS011;1544;48.834;9.194;2023-11-19T11:13:42;0.90;;;0.60;;
3066;SDS011;1544;48.834;9.194;2023-11-19T11:16:19;1.27;;;0.50;;
3066;SDS011;1544;48.834;9.194;2023-11-19T11:18:57;0.70;;;0.57;;
3066;SDS011;1544;48.834;9.194;2023-11-19T11:21:34;0.60;;;0.50;;
3066;SDS011;1544;48.834;9.194;2023-11-19T11:30:24;1.37;;;0.60;;
3066;SDS011;1544;48.834;9.194;2023-11-19T11:36:44;0.87;;;0.60;;
3066;SDS011;1544;48.834;9.194;2023-11-19T11:40:03;1.20;;;0.60;;
3066;SDS011;1544;48.834;9.194;2023-11-19T11:42:46;1.33;;;0.40;;
3066;SDS011;1544;48.834;9.194;2023-11-19T11:45:40;0.60;;;0.50;;
3066;SDS011;1544;48.834;9.194;2023-11-19T11:48:19;1.37;;;0.50;;
3066;SDS011;1544;48.834;9.194;2023-11-19T11:50:58;1.10;;;0.60;;
3066;SDS011;1544;48.834;9.194;2023-11-19T11:53:34;0.50;;;0.50;;
3066;SDS011;1544;48.834;9.194;2023-11-19T11:56:10;0.80;;;0.60;;
3066;SDS011;1544;48.834;9.194;2023-11-19T11:58:46;1.63;;;0.80;;
3066;SDS011;1544;48.834;9.194;2023-11-19T12:01:23;0.80;;;0.50;;
3066;SDS011;1544;48.834;9.194;2023-11-19T12:04:04;0.40;;;0.40;;
3066;SDS011;1544;48.834;9.194;2023-11-19T12:06:40;1.27;;;0.60;;
3066;SDS011;1544;48.834;9.194;2023-11-19T12:09:18;0.53;;;0.50;;
3066;SDS011;1544;48.834;9.194;2023-11-19T12:17:41;1.33;;;0.50;;
3066;SDS011;1544;48.834;9.194;2023-11-19T12:20:24;0.80;;;0.50;;
3066;SDS011;1544;48.834;9.194;2023-11-19T12:23:04;1.63;;;0.60;;
3066;SDS011;1544;48.834;9.194;2023-11-19T12:25:43;0.60;;;0.53;;
3066;SDS011;1544;48.834;9.194;2023-11-19T12:28:20;1.30;;;0.60;;
3066;SDS011;1544;48.834;9.194;2023-11-19T12:31:07;0.47;;;0.47;;
3066;SDS011;1544;48.834;9.194;2023-11-19T12:33:46;0.87;;;0.50;;
3066;SDS011;1544;48.834;9.194;2023-11-19T12:36:23;0.50;;;0.50;;
3066;SDS011;1544;48.834;9.194;2023-11-19T12:38:59;0.40;;;0.40;;
3066;SDS011;1544;48.834;9.194;2023-11-19T12:41:48;0.60;;;0.57;;
3066;SDS011;1544;48.834;9.194;2023-11-19T12:44:26;1.00;;;0.50;;
3066;SDS011;1544;48.834;9.194;2023-11-19T12:47:02;2.10;;;0.40;;
3066;SDS011;1544;48.834;9.194;2023-11-19T12:49:41;1.43;;;0.50;;
3066;SDS011;1544;48.834;9.194;2023-11-19T12:52:17;0.77;;;0.60;;
3066;SDS011;1544;48.834;9.194;2023-11-19T12:54:53;0.60;;;0.60;;
3066;SDS011;1544;48.834;9.194;2023-11-19T12:57:39;0.60;;;0.50;;
3066;SDS011;1544;48.834;9.194;2023-11-19T13:00:20;0.97;;;0.67;;
3066;SDS011;1544;48.834;9.194;2023-11-19T13:02:58;1.10;;;0.63;;
3066;SDS011;1544;48.834;9.194;2023-11-19T13:05:34;1.40;;;0.70;;
3066;SDS011;1544;48.834;9.194;2023-11-19T13:08:11;1.90;;;0.50;;
3066;SDS011;1544;48.834;9.194;2023-11-19T13:10:51;0.70;;;0.40;;
3066;SDS011;1544;48.834;9.194;2023-11-19T13:13:29;1.53;;;0.40;;
3066;SDS011;1544;48.834;9.194;2023-11-19T13:16:05;0.40;;;0.40;;
3066;SDS011;1544;48.834;9.194;2023-11-19T13:18:41;0.60;;;0.47;;
3066;SDS011;1544;48.834;9.194;2023-11-19T13:21:19;0.80;;;0.47;;
3066;SDS011;1544;48.834;9.194;2023-11-19T13:23:55;1.50;;;1.27;;
3066;SDS011;1544;48.834;9.194;2023-11-19T13:26:31;1.50;;;0.40;;
3066;SDS011;1544;48.834;9.194;2023-11-19T13:29:07;0.97;;;0.67;;
3066;SDS011;1544;48.834;9.194;2023-11-19T13:31:46;1.13;;;0.70;;
3066;SDS011;1544;48.834;9.194;2023-11-19T13:34:21;2.43;;;0.53;;
3066;SDS011;1544;48.834;9.194;2023-11-19T13:36:57;0.80;;;0.50;;
3066;SDS011;1544;48.834;9.194;2023-11-19T13:39:33;0.70;;;0.57;;
3066;SDS011;1544;48.834;9.194;2023-11-19T13:42:09;0.50;;;0.40;;
3066;SDS011;1544;48.834;9.194;2023-11-19T13:44:48;0.40;;;0.40;;
3066;SDS011;1544;48.834;9.194;2023-11-19T13:47:25;0.40;;;0.40;;
3066;SDS011;1544;48.834;9.194;2023-11-19T13:50:01;0.67;;;0.63;;
3066;SDS011;1544;48.834;9.194;2023-11-19T13:52:42;1.40;;;0.50;;
3066;SDS011;1544;48.834;9.194;2023-11-19T13:55:21;0.50;;;0.50;;
3066;SDS011;1544;48.834;9.194;2023-11-19T13:57:57;1.57;;;0.40;;
3066;SDS011;1544;48.834;9.194;2023-11-19T14:00:34;0.90;;;0.60;;
3066;SDS011;1544;48.834;9.194;2023-11-19T14:03:10;1.30;;;0.60;;
3066;SDS011;1544;48.834;9.194;2023-11-19T14:05:46;0.87;;;0.70;;
3066;SDS011;1544;48.834;9.194;2023-11-19T14:08:23;0.90;;;0.57;;
3066;SDS011;1544;48.834;9.194;2023-11-19T14:11:00;0.50;;;0.47;;
3066;SDS011;1544;48.834;9.194;2023-11-19T14:13:36;0.50;;;0.40;;
3066;SDS011;1544;48.834;9.194;2023-11-19T14:16:12;0.67;;;0.50;;
3066;SDS011;1544;48.834;9.194;2023-11-19T14:18:49;0.60;;;0.60;;
3066;SDS011;1544;48.834;9.194;2023-11-19T14:21:25;0.53;;;0.50;;
3066;SDS011;1544;48.834;9.194;2023-11-19T14:24:03;0.50;;;0.50;;
3066;SDS011;1544;48.834;9.194;2023-11-19T14:26:39;1.20;;;0.50;;
3066;SDS011;1544;48.834;9.194;2023-11-19T14:29:15;1.53;;;0.50;;
3066;SDS011;1544;48.834;9.194;2023-11-19T14:31:51;0.80;;;0.47;;
3066;SDS011;1544;48.834;9.194;2023-11-19T14:34:32;0.57;;;0.50;;
3066;SDS011;1544;48.834;9.194;2023-11-19T14:37:08;1.47;;;0.80;;
3066;SDS011;1544;48.834;9.194;2023-11-19T14:39:44;0.80;;;0.67;;
3066;SDS011;1544;48.834;9.194;2023-11-19T14:42:24;3.67;;;0.80;;
3066;SDS011;1544;48.834;9.194;2023-11-19T14:45:00;0.60;;;0.50;;
3066;SDS011;1544;48.834;9.194;2023-11-19T14:47:36;0.60;;;0.50;;
3066;SDS011;1544;48.834;9.194;2023-11-19T14:50:12;0.60;;;0.50;;
3066;SDS011;1544;48.834;9.194;2023-11-19T14:52:48;0.70;;;0.50;;
3066;SDS011;1544;48.834;9.194;2023-11-19T14:55:24;0.60;;;0.60;;
3066;SDS011;1544;48.834;9.194;2023-11-19T14:58:01;0.70;;;0.70;;
3066;SDS011;1544;48.834;9.194;2023-11-19T15:00:45;3.80;;;0.70;;
3066;SDS011;1544;48.834;9.194;2023-11-19T15:03:21;1.07;;;0.50;;
3066;SDS011;1544;48.834;9.194;2023-11-19T15:05:57;0.97;;;0.50;;
3066;SDS011;1544;48.834;9.194;2023-11-19T15:08:35;0.90;;;0.53;;
3066;SDS011;1544;48.834;9.194;2023-11-19T15:11:11;1.10;;;0.60;;
3066;SDS011;1544;48.834;9.194;2023-11-19T15:13:47;1.60;;;0.50;;
3066;SDS011;1544;48.834;9.194;2023-11-19T15:16:24;0.60;;;0.40;;
3066;SDS011;1544;48.834;9.194;2023-11-19T15:19:08;0.50;;;0.50;;
3066;SDS011;1544;48.834;9.194;2023-11-19T15:21:44;1.00;;;0.60;;
3066;SDS011;1544;48.834;9.194;2023-11-19T15:24:20;0.60;;;0.50;;
3066;SDS011;1544;48.834;9.194;2023-11-19T15:26:56;1.13;;;0.50;;
3066;SDS011;1544;48.834;9.194;2023-11-19T15:29:49;0.70;;;0.50;;
3066;SDS011;1544;48.834;9.194;2023-11-19T15:32:24;1.60;;;0.60;;
3066;SDS011;1544;48.834;9.194;2023-11-19T15:35:01;1.73;;;0.50;;
3066;SDS011;1544;48.834;9.194;2023-11-19T15:37:38;2.30;;;0.70;;
3066;SDS011;1544;48.834;9.194;2023-11-19T15:40:16;0.50;;;0.50;;
3066;SDS011;1544;48.834;9.194;2023-11-19T15:42:53;0.87;;;0.60;;
3066;SDS011;1544;48.834;9.194;2023-11-19T15:45:32;0.57;;;0.53;;
3066;SDS011;1544;48.834;9.194;2023-11-19T15:48:13;0.93;;;0.60;;
3066;SDS011;1544;48.834;9.194;2023-11-19T15:50:49;0.97;;;0.60;;
3066;SDS011;1544;48.834;9.194;2023-11-19T15:53:25;1.20;;;0.60;;
3066;SDS011;1544;48.834;9.194;2023-11-19T15:56:01;0.70;;;0.70;;
3066;SDS011;1544;48.834;9.194;2023-11-19T15:58:38;0.90;;;0.60;;
3066;SDS011;1544;48.834;9.194;2023-11-19T16:01:15;0.60;;;0.60;;
3066;SDS011;1544;48.834;9.194;2023-11-19T16:03:51;0.90;;;0.60;;
3066;SDS011;1544;48.834;9.194;2023-11-19T16:06:27;2.10;;;0.60;;
3066;SDS011;1544;48.834;9.194;2023-11-19T16:09:03;0.50;;;0.50;;
3066;SDS011;1544;48.834;9.194;2023-11-19T16:11:40;1.10;;;0.50;;
3066;SDS011;1544;48.834;9.194;2023-11-19T16:14:30;1.07;;;0.70;;
3066;SDS011;1544;48.834;9.194;2023-11-19T16:17:06;0.70;;;0.70;;
3066;SDS011;1544;48.834;9.194;2023-11-19T16:19:42;0.80;;;0.60;;
3066;SDS011;1544;48.834;9.194;2023-11-19T16:22:19;0.47;;;0.40;;
3066;SDS011;1544;48.834;9.194;2023-11-19T16:24:58;0.60;;;0.60;;
3066;SDS011;1544;48.834;9.194;2023-11-19T16:27:34;0.67;;;0.50;;
3066;SDS011;1544;48.834;9.194;2023-11-19T16:30:11;0.67;;;0.53;;
3066;SDS011;1544;48.834;9.194;2023-11-19T16:32:53;0.80;;;0.60;;
3066;SDS011;1544;48.834;9.194;2023-11-19T16:35:34;2.03;;;0.70;;